sensor_id;sensor_type;location;lat;lon;timestamp;P1;durP1;ratioP1;P2;durP2;ratioP2
19551;SDS011;9921;47.186;9.778;2023-06-04T00:01:39;0.00;;;0.00;;
19551;SDS011;9921;47.186;9.778;2023-06-04T00:04:08;0.00;;;0.00;;
19551;SDS011;9921;47.186;9.778;2023-06-04T00:06:35;0.00;;;0.00;;
19551;SDS011;9921;47.186;9.778;2023-06-04T00:09:03;0.00;;;0.00;;
19551;SDS011;9921;47.186;9.778;2023-06-04T00:11:30;0.00;;;0.00;;
19551;SDS011;9921;47.186;9.778;2023-06-04T00:13:59;0.00;;;0.00;;
19551;SDS011;9921;47.186;9.778;2023-06-04T00:16:26;0.00;;;0.00;;
19551;SDS011;9921;47.186;9.778;2023-06-04T00:18:53;0.00;;;0.00;;
19551;SDS011;9921;47.186;9.778;2023-06-04T00:21:21;0.00;;;0.00;;
19551;SDS011;9921;47.186;9.778;2023-06-04T00:23:48;0.00;;;0.00;;
19551;SDS011;9921;47.186;9.778;2023-06-04T00:26:15;0.00;;;0.00;;
19551;SDS011;9921;47.186;9.778;2023-06-04T00:28:43;0.00;;;0.00;;
19551;SDS011;9921;47.186;9.778;2023-06-04T00:31:10;0.00;;;0.00;;
19551;SDS011;9921;47.186;9.778;2023-06-04T00:33:37;0.00;;;0.00;;
19551;SDS011;9921;47.186;9.778;2023-06-04T00:36:05;0.00;;;0.00;;
19551;SDS011;9921;47.186;9.778;2023-06-04T00:38:34;0.00;;;0.00;;
19551;SDS011;9921;47.186;9.778;2023-06-04T00:41:01;0.00;;;0.00;;
19551;SDS011;9921;47.186;9.778;2023-06-04T00:43:28;0.00;;;0.00;;
19551;SDS011;9921;47.186;9.778;2023-06-04T00:45:56;0.00;;;0.00;;
19551;SDS011;9921;47.186;9.778;2023-06-04T00:48:24;0.00;;;0.00;;
19551;SDS011;9921;47.186;9.778;2023-06-04T00:50:52;0.00;;;0.00;;
19551;SDS011;9921;47.186;9.778;2023-06-04T00:53:20;0.00;;;0.00;;
19551;SDS011;9921;47.186;9.778;2023-06-04T00:55:50;0.00;;;0.00;;
19551;SDS011;9921;47.186;9.778;2023-06-04T00:58:17;0.00;;;0.00;;
19551;SDS011;9921;47.186;9.778;2023-06-04T01:00:45;0.00;;;0.00;;
19551;SDS011;9921;47.186;9.778;2023-06-04T01:03:13;0.00;;;0.00;;
19551;SDS011;9921;47.186;9.778;2023-06-04T01:05:46;0.00;;;0.00;;
19551;SDS011;9921;47.186;9.778;2023-06-04T01:08:17;0.00;;;0.00;;
19551;SDS011;9921;47.186;9.778;2023-06-04T01:10:52;0.00;;;0.00;;
19551;SDS011;9921;47.186;9.778;2023-06-04T01:13:20;0.00;;;0.00;;
19551;SDS011;9921;47.186;9.778;2023-06-04T01:15:47;0.00;;;0.00;;
19551;SDS011;9921;47.186;9.778;2023-06-04T01:18:15;0.00;;;0.00;;
19551;SDS011;9921;47.186;9.778;2023-06-04T01:20:52;0.00;;;0.00;;
19551;SDS011;9921;47.186;9.778;2023-06-04T01:23:25;0.00;;;0.00;;
19551;SDS011;9921;47.186;9.778;2023-06-04T01:26:01;0.00;;;0.00;;
19551;SDS011;9921;47.186;9.778;2023-06-04T01:28:29;0.00;;;0.00;;
19551;SDS011;9921;47.186;9.778;2023-06-04T01:30:58;0.00;;;0.00;;
19551;SDS011;9921;47.186;9.778;2023-06-04T01:33:27;0.00;;;0.00;;
19551;SDS011;9921;47.186;9.778;2023-06-04T01:35:54;0.00;;;0.00;;
19551;SDS011;9921;47.186;9.778;2023-06-04T01:38:22;0.00;;;0.00;;
19551;SDS011;9921;47.186;9.778;2023-06-04T01:40:49;0.00;;;0.00;;
19551;SDS011;9921;47.186;9.778;2023-06-04T01:43:22;0.00;;;0.00;;
19551;SDS011;9921;47.186;9.778;2023-06-04T01:45:50;0.00;;;0.00;;
19551;SDS011;9921;47.186;9.778;2023-06-04T01:48:17;0.00;;;0.00;;
19551;SDS011;9921;47.186;9.778;2023-06-04T01:50:44;0.00;;;0.00;;
19551;SDS011;9921;47.186;9.778;2023-06-04T01:53:12;0.00;;;0.00;;
19551;SDS011;9921;47.186;9.778;2023-06-04T01:55:39;0.00;;;0.00;;
19551;SDS011;9921;47.186;9.778;2023-06-04T01:58:06;0.00;;;0.00;;
19551;SDS011;9921;47.186;9.778;2023-06-04T02:00:35;0.00;;;0.00;;
19551;SDS011;9921;47.186;9.778;2023-06-04T02:03:03;0.00;;;0.00;;
19551;SDS011;9921;47.186;9.778;2023-06-04T02:05:31;0.00;;;0.00;;
19551;SDS011;9921;47.186;9.778;2023-06-04T02:07:58;0.00;;;0.00;;
19551;SDS011;9921;47.186;9.778;2023-06-04T02:10:27;0.00;;;0.00;;
19551;SDS011;9921;47.186;9.778;2023-06-04T02:12:55;0.00;;;0.00;;
19551;SDS011;9921;47.186;9.778;2023-06-04T02:15:24;0.00;;;0.00;;
19551;SDS011;9921;47.186;9.778;2023-06-04T02:17:54;0.00;;;0.00;;
19551;SDS011;9921;47.186;9.778;2023-06-04T02:20:25;0.00;;;0.00;;
19551;SDS011;9921;47.186;9.778;2023-06-04T02:22:53;0.00;;;0.00;;
19551;SDS011;9921;47.186;9.778;2023-06-04T02:25:21;0.00;;;0.00;;
19551;SDS011;9921;47.186;9.778;2023-06-04T02:27:49;0.00;;;0.00;;
19551;SDS011;9921;47.186;9.778;2023-06-04T02:30:16;0.00;;;0.00;;
19551;SDS011;9921;47.186;9.778;2023-06-04T02:32:44;0.00;;;0.00;;
19551;SDS011;9921;47.186;9.778;2023-06-04T02:35:13;0.00;;;0.00;;
19551;SDS011;9921;47.186;9.778;2023-06-04T02:37:41;0.00;;;0.00;;
19551;SDS011;9921;47.186;9.778;2023-06-04T02:40:08;0.00;;;0.00;;
19551;SDS011;9921;47.186;9.778;2023-06-04T02:42:37;0.00;;;0.00;;
19551;SDS011;9921;47.186;9.778;2023-06-04T02:45:05;0.00;;;0.00;;
19551;SDS011;9921;47.186;9.778;2023-06-04T02:47:33;0.00;;;0.00;;
19551;SDS011;9921;47.186;9.778;2023-06-04T02:50:00;0.00;;;0.00;;
19551;SDS011;9921;47.186;9.778;2023-06-04T02:52:30;0.00;;;0.00;;
19551;SDS011;9921;47.186;9.778;2023-06-04T02:54:58;0.00;;;0.00;;
19551;SDS011;9921;47.186;9.778;2023-06-04T02:57:27;0.00;;;0.00;;
19551;SDS011;9921;47.186;9.778;2023-06-04T02:59:55;0.00;;;0.00;;
19551;SDS011;9921;47.186;9.778;2023-06-04T03:02:23;0.00;;;0.00;;
19551;SDS011;9921;47.186;9.778;2023-06-04T03:04:51;0.00;;;0.00;;
19551;SDS011;9921;47.186;9.778;2023-06-04T03:07:20;0.00;;;0.00;;
19551;SDS011;9921;47.186;9.778;2023-06-04T03:09:49;0.00;;;0.00;;
19551;SDS011;9921;47.186;9.778;2023-06-04T03:12:16;0.00;;;0.00;;
19551;SDS011;9921;47.186;9.778;2023-06-04T03:14:44;0.00;;;0.00;;
19551;SDS011;9921;47.186;9.778;2023-06-04T03:17:11;0.00;;;0.00;;
19551;SDS011;9921;47.186;9.778;2023-06-04T03:19:39;0.00;;;0.00;;
19551;SDS011;9921;47.186;9.778;2023-06-04T03:22:08;0.00;;;0.00;;
19551;SDS011;9921;47.186;9.778;2023-06-04T03:24:36;0.00;;;0.00;;
19551;SDS011;9921;47.186;9.778;2023-06-04T03:27:07;0.00;;;0.00;;
19551;SDS011;9921;47.186;9.778;2023-06-04T03:29:35;0.00;;;0.00;;
19551;SDS011;9921;47.186;9.778;2023-06-04T03:32:03;0.00;;;0.00;;
19551;SDS011;9921;47.186;9.778;2023-06-04T03:34:32;0.00;;;0.00;;
19551;SDS011;9921;47.186;9.778;2023-06-04T03:36:59;0.00;;;0.00;;
19551;SDS011;9921;47.186;9.778;2023-06-04T03:39:27;0.00;;;0.00;;
19551;SDS011;9921;47.186;9.778;2023-06-04T03:41:54;0.00;;;0.00;;
19551;SDS011;9921;47.186;9.778;2023-06-04T03:44:23;0.00;;;0.00;;
19551;SDS011;9921;47.186;9.778;2023-06-04T03:46:51;0.00;;;0.00;;
19551;SDS011;9921;47.186;9.778;2023-06-04T03:49:18;0.00;;;0.00;;
19551;SDS011;9921;47.186;9.778;2023-06-04T03:51:47;0.00;;;0.00;;
19551;SDS011;9921;47.186;9.778;2023-06-04T03:54:15;0.00;;;0.00;;
19551;SDS011;9921;47.186;9.778;2023-06-04T03:56:46;0.00;;;0.00;;
19551;SDS011;9921;47.186;9.778;2023-06-04T03:59:14;0.00;;;0.00;;
19551;SDS011;9921;47.186;9.778;2023-06-04T04:01:43;0.00;;;0.00;;
19551;SDS011;9921;47.186;9.778;2023-06-04T04:04:12;0.00;;;0.00;;
19551;SDS011;9921;47.186;9.778;2023-06-04T04:06:42;0.00;;;0.00;;
19551;SDS011;9921;47.186;9.778;2023-06-04T04:09:12;0.00;;;0.00;;
19551;SDS011;9921;47.186;9.778;2023-06-04T04:11:40;0.00;;;0.00;;
19551;SDS011;9921;47.186;9.778;2023-06-04T04:14:14;0.00;;;0.00;;
19551;SDS011;9921;47.186;9.778;2023-06-04T04:16:46;0.00;;;0.00;;
19551;SDS011;9921;47.186;9.778;2023-06-04T04:19:16;0.00;;;0.00;;
19551;SDS011;9921;47.186;9.778;2023-06-04T04:21:48;0.00;;;0.00;;
19551;SDS011;9921;47.186;9.778;2023-06-04T04:24:24;0.00;;;0.00;;
19551;SDS011;9921;47.186;9.778;2023-06-04T04:26:52;0.00;;;0.00;;
19551;SDS011;9921;47.186;9.778;2023-06-04T04:29:23;0.00;;;0.00;;
19551;SDS011;9921;47.186;9.778;2023-06-04T04:31:59;0.00;;;0.00;;
19551;SDS011;9921;47.186;9.778;2023-06-04T04:34:35;0.00;;;0.00;;
19551;SDS011;9921;47.186;9.778;2023-06-04T04:37:04;0.00;;;0.00;;
19551;SDS011;9921;47.186;9.778;2023-06-04T04:39:34;0.00;;;0.00;;
19551;SDS011;9921;47.186;9.778;2023-06-04T04:42:02;0.00;;;0.00;;
19551;SDS011;9921;47.186;9.778;2023-06-04T04:44:30;0.00;;;0.00;;
19551;SDS011;9921;47.186;9.778;2023-06-04T04:46:59;0.00;;;0.00;;
19551;SDS011;9921;47.186;9.778;2023-06-04T04:49:26;0.00;;;0.00;;
19551;SDS011;9921;47.186;9.778;2023-06-04T04:51:54;0.00;;;0.00;;
19551;SDS011;9921;47.186;9.778;2023-06-04T04:54:21;0.00;;;0.00;;
19551;SDS011;9921;47.186;9.778;2023-06-04T04:56:49;0.00;;;0.00;;
19551;SDS011;9921;47.186;9.778;2023-06-04T04:59:18;0.00;;;0.00;;
19551;SDS011;9921;47.186;9.778;2023-06-04T05:01:50;0.00;;;0.00;;
19551;SDS011;9921;47.186;9.778;2023-06-04T05:04:22;0.00;;;0.00;;
19551;SDS011;9921;47.186;9.778;2023-06-04T05:06:50;0.00;;;0.00;;
19551;SDS011;9921;47.186;9.778;2023-06-04T05:09:20;0.00;;;0.00;;
19551;SDS011;9921;47.186;9.778;2023-06-04T05:11:48;0.00;;;0.00;;
19551;SDS011;9921;47.186;9.778;2023-06-04T05:14:16;0.00;;;0.00;;
19551;SDS011;9921;47.186;9.778;2023-06-04T05:16:44;0.00;;;0.00;;
19551;SDS011;9921;47.186;9.778;2023-06-04T05:19:13;0.00;;;0.00;;
19551;SDS011;9921;47.186;9.778;2023-06-04T05:21:43;0.00;;;0.00;;
19551;SDS011;9921;47.186;9.778;2023-06-04T05:24:11;0.00;;;0.00;;
19551;SDS011;9921;47.186;9.778;2023-06-04T05:26:38;0.00;;;0.00;;
19551;SDS011;9921;47.186;9.778;2023-06-04T05:29:06;0.00;;;0.00;;
19551;SDS011;9921;47.186;9.778;2023-06-04T05:31:34;0.00;;;0.00;;
19551;SDS011;9921;47.186;9.778;2023-06-04T05:34:02;0.00;;;0.00;;
19551;SDS011;9921;47.186;9.778;2023-06-04T05:36:30;0.00;;;0.00;;
19551;SDS011;9921;47.186;9.778;2023-06-04T05:38:59;0.00;;;0.00;;
19551;SDS011;9921;47.186;9.778;2023-06-04T05:41:27;0.00;;;0.00;;
19551;SDS011;9921;47.186;9.778;2023-06-04T05:43:54;0.00;;;0.00;;
19551;SDS011;9921;47.186;9.778;2023-06-04T05:46:22;0.00;;;0.00;;
19551;SDS011;9921;47.186;9.778;2023-06-04T05:48:49;0.00;;;0.00;;
19551;SDS011;9921;47.186;9.778;2023-06-04T05:51:17;0.00;;;0.00;;
19551;SDS011;9921;47.186;9.778;2023-06-04T05:53:45;0.00;;;0.00;;
19551;SDS011;9921;47.186;9.778;2023-06-04T05:56:13;0.00;;;0.00;;
19551;SDS011;9921;47.186;9.778;2023-06-04T05:58:41;0.00;;;0.00;;
19551;SDS011;9921;47.186;9.778;2023-06-04T06:01:09;0.00;;;0.00;;
19551;SDS011;9921;47.186;9.778;2023-06-04T06:03:36;0.00;;;0.00;;
19551;SDS011;9921;47.186;9.778;2023-06-04T06:06:04;0.00;;;0.00;;
19551;SDS011;9921;47.186;9.778;2023-06-04T06:08:31;0.00;;;0.00;;
19551;SDS011;9921;47.186;9.778;2023-06-04T06:10:59;0.00;;;0.00;;
19551;SDS011;9921;47.186;9.778;2023-06-04T06:13:29;0.00;;;0.00;;
19551;SDS011;9921;47.186;9.778;2023-06-04T06:15:57;0.00;;;0.00;;
19551;SDS011;9921;47.186;9.778;2023-06-04T06:18:25;0.00;;;0.00;;
19551;SDS011;9921;47.186;9.778;2023-06-04T06:20:53;0.00;;;0.00;;
19551;SDS011;9921;47.186;9.778;2023-06-04T06:23:21;0.00;;;0.00;;
19551;SDS011;9921;47.186;9.778;2023-06-04T06:25:49;0.00;;;0.00;;
19551;SDS011;9921;47.186;9.778;2023-06-04T06:28:17;0.00;;;0.00;;
19551;SDS011;9921;47.186;9.778;2023-06-04T06:30:46;0.00;;;0.00;;
19551;SDS011;9921;47.186;9.778;2023-06-04T06:33:13;0.00;;;0.00;;
19551;SDS011;9921;47.186;9.778;2023-06-04T06:35:46;0.00;;;0.00;;
19551;SDS011;9921;47.186;9.778;2023-06-04T06:38:19;0.00;;;0.00;;
19551;SDS011;9921;47.186;9.778;2023-06-04T06:40:47;0.00;;;0.00;;
19551;SDS011;9921;47.186;9.778;2023-06-04T06:43:18;0.00;;;0.00;;
19551;SDS011;9921;47.186;9.778;2023-06-04T06:45:47;0.00;;;0.00;;
19551;SDS011;9921;47.186;9.778;2023-06-04T06:48:17;0.00;;;0.00;;
19551;SDS011;9921;47.186;9.778;2023-06-04T06:50:44;0.00;;;0.00;;
19551;SDS011;9921;47.186;9.778;2023-06-04T06:53:11;0.00;;;0.00;;
19551;SDS011;9921;47.186;9.778;2023-06-04T06:55:38;0.00;;;0.00;;
19551;SDS011;9921;47.186;9.778;2023-06-04T06:58:06;0.00;;;0.00;;
19551;SDS011;9921;47.186;9.778;2023-06-04T07:00:35;0.00;;;0.00;;
19551;SDS011;9921;47.186;9.778;2023-06-04T07:03:06;0.00;;;0.00;;
19551;SDS011;9921;47.186;9.778;2023-06-04T07:05:35;0.00;;;0.00;;
19551;SDS011;9921;47.186;9.778;2023-06-04T07:08:02;0.00;;;0.00;;
19551;SDS011;9921;47.186;9.778;2023-06-04T07:10:29;0.00;;;0.00;;
19551;SDS011;9921;47.186;9.778;2023-06-04T07:13:00;0.00;;;0.00;;
19551;SDS011;9921;47.186;9.778;2023-06-04T07:15:27;0.00;;;0.00;;
19551;SDS011;9921;47.186;9.778;2023-06-04T07:17:55;0.00;;;0.00;;
19551;SDS011;9921;47.186;9.778;2023-06-04T07:20:26;0.00;;;0.00;;
19551;SDS011;9921;47.186;9.778;2023-06-04T07:22:53;0.00;;;0.00;;
19551;SDS011;9921;47.186;9.778;2023-06-04T07:25:20;0.00;;;0.00;;
19551;SDS011;9921;47.186;9.778;2023-06-04T07:27:49;0.00;;;0.00;;
19551;SDS011;9921;47.186;9.778;2023-06-04T07:30:23;0.00;;;0.00;;
19551;SDS011;9921;47.186;9.778;2023-06-04T07:32:53;0.00;;;0.00;;
19551;SDS011;9921;47.186;9.778;2023-06-04T07:35:23;0.00;;;0.00;;
19551;SDS011;9921;47.186;9.778;2023-06-04T07:37:54;0.00;;;0.00;;
19551;SDS011;9921;47.186;9.778;2023-06-04T07:40:21;0.00;;;0.00;;
19551;SDS011;9921;47.186;9.778;2023-06-04T07:42:51;0.00;;;0.00;;
19551;SDS011;9921;47.186;9.778;2023-06-04T07:45:18;0.00;;;0.00;;
19551;SDS011;9921;47.186;9.778;2023-06-04T07:47:46;0.00;;;0.00;;
19551;SDS011;9921;47.186;9.778;2023-06-04T07:50:13;0.00;;;0.00;;
19551;SDS011;9921;47.186;9.778;2023-06-04T07:52:43;0.00;;;0.00;;
19551;SDS011;9921;47.186;9.778;2023-06-04T07:55:12;0.00;;;0.00;;
19551;SDS011;9921;47.186;9.778;2023-06-04T07:57:39;0.00;;;0.00;;
19551;SDS011;9921;47.186;9.778;2023-06-04T08:00:07;0.00;;;0.00;;
19551;SDS011;9921;47.186;9.778;2023-06-04T08:02:37;0.00;;;0.00;;
19551;SDS011;9921;47.186;9.778;2023-06-04T08:05:04;0.00;;;0.00;;
19551;SDS011;9921;47.186;9.778;2023-06-04T08:07:34;0.00;;;0.00;;
19551;SDS011;9921;47.186;9.778;2023-06-04T08:10:01;0.00;;;0.00;;
19551;SDS011;9921;47.186;9.778;2023-06-04T08:12:34;0.00;;;0.00;;
19551;SDS011;9921;47.186;9.778;2023-06-04T08:15:02;0.00;;;0.00;;
19551;SDS011;9921;47.186;9.778;2023-06-04T08:17:31;0.00;;;0.00;;
19551;SDS011;9921;47.186;9.778;2023-06-04T08:19:59;0.00;;;0.00;;
19551;SDS011;9921;47.186;9.778;2023-06-04T08:22:26;0.00;;;0.00;;
19551;SDS011;9921;47.186;9.778;2023-06-04T08:24:59;0.00;;;0.00;;
19551;SDS011;9921;47.186;9.778;2023-06-04T08:27:27;0.00;;;0.00;;
19551;SDS011;9921;47.186;9.778;2023-06-04T08:29:56;0.00;;;0.00;;
19551;SDS011;9921;47.186;9.778;2023-06-04T08:32:23;0.08;;;0.08;;
19551;SDS011;9921;47.186;9.778;2023-06-04T08:34:51;0.00;;;0.00;;
19551;SDS011;9921;47.186;9.778;2023-06-04T08:37:22;0.00;;;0.00;;
19551;SDS011;9921;47.186;9.778;2023-06-04T08:39:50;0.00;;;0.00;;
19551;SDS011;9921;47.186;9.778;2023-06-04T08:42:22;0.00;;;0.00;;
19551;SDS011;9921;47.186;9.778;2023-06-04T08:45:08;0.00;;;0.00;;
19551;SDS011;9921;47.186;9.778;2023-06-04T08:47:50;0.10;;;0.10;;
19551;SDS011;9921;47.186;9.778;2023-06-04T08:50:20;0.00;;;0.00;;
19551;SDS011;9921;47.186;9.778;2023-06-04T08:52:49;0.00;;;0.00;;
19551;SDS011;9921;47.186;9.778;2023-06-04T08:55:18;0.10;;;0.10;;
19551;SDS011;9921;47.186;9.778;2023-06-04T08:57:45;0.00;;;0.00;;
19551;SDS011;9921;47.186;9.778;2023-06-04T09:00:17;0.00;;;0.00;;
19551;SDS011;9921;47.186;9.778;2023-06-04T09:02:44;0.00;;;0.00;;
19551;SDS011;9921;47.186;9.778;2023-06-04T09:05:15;0.00;;;0.00;;
19551;SDS011;9921;47.186;9.778;2023-06-04T09:07:46;0.00;;;0.00;;
19551;SDS011;9921;47.186;9.778;2023-06-04T09:10:15;0.00;;;0.00;;
19551;SDS011;9921;47.186;9.778;2023-06-04T09:12:45;0.00;;;0.00;;
19551;SDS011;9921;47.186;9.778;2023-06-04T09:15:13;0.10;;;0.10;;
19551;SDS011;9921;47.186;9.778;2023-06-04T09:17:41;0.10;;;0.10;;
19551;SDS011;9921;47.186;9.778;2023-06-04T09:20:18;0.10;;;0.10;;
19551;SDS011;9921;47.186;9.778;2023-06-04T09:22:46;0.10;;;0.10;;
19551;SDS011;9921;47.186;9.778;2023-06-04T09:25:19;0.10;;;0.10;;
19551;SDS011;9921;47.186;9.778;2023-06-04T09:27:47;0.10;;;0.10;;
19551;SDS011;9921;47.186;9.778;2023-06-04T09:30:14;0.00;;;0.00;;
19551;SDS011;9921;47.186;9.778;2023-06-04T09:32:42;0.10;;;0.10;;
19551;SDS011;9921;47.186;9.778;2023-06-04T09:35:10;0.10;;;0.10;;
19551;SDS011;9921;47.186;9.778;2023-06-04T09:37:39;0.10;;;0.10;;
19551;SDS011;9921;47.186;9.778;2023-06-04T09:40:06;0.10;;;0.10;;
19551;SDS011;9921;47.186;9.778;2023-06-04T09:42:43;0.00;;;0.00;;
19551;SDS011;9921;47.186;9.778;2023-06-04T09:45:11;0.10;;;0.10;;
19551;SDS011;9921;47.186;9.778;2023-06-04T09:47:39;0.10;;;0.10;;
19551;SDS011;9921;47.186;9.778;2023-06-04T09:50:11;0.10;;;0.10;;
19551;SDS011;9921;47.186;9.778;2023-06-04T09:52:38;0.10;;;0.10;;
19551;SDS011;9921;47.186;9.778;2023-06-04T09:55:15;0.10;;;0.10;;
19551;SDS011;9921;47.186;9.778;2023-06-04T09:57:46;0.10;;;0.10;;
19551;SDS011;9921;47.186;9.778;2023-06-04T10:00:15;0.10;;;0.10;;
19551;SDS011;9921;47.186;9.778;2023-06-04T10:02:44;0.10;;;0.10;;
19551;SDS011;9921;47.186;9.778;2023-06-04T10:05:14;0.20;;;0.20;;
19551;SDS011;9921;47.186;9.778;2023-06-04T10:07:45;0.10;;;0.10;;
19551;SDS011;9921;47.186;9.778;2023-06-04T10:10:15;0.10;;;0.10;;
19551;SDS011;9921;47.186;9.778;2023-06-04T10:12:45;0.10;;;0.10;;
19551;SDS011;9921;47.186;9.778;2023-06-04T10:15:20;0.20;;;0.20;;
19551;SDS011;9921;47.186;9.778;2023-06-04T10:17:47;0.10;;;0.10;;
19551;SDS011;9921;47.186;9.778;2023-06-04T10:20:17;0.10;;;0.10;;
19551;SDS011;9921;47.186;9.778;2023-06-04T10:22:46;0.10;;;0.10;;
19551;SDS011;9921;47.186;9.778;2023-06-04T10:25:15;0.10;;;0.10;;
19551;SDS011;9921;47.186;9.778;2023-06-04T10:27:42;0.20;;;0.20;;
19551;SDS011;9921;47.186;9.778;2023-06-04T10:30:09;0.20;;;0.20;;
19551;SDS011;9921;47.186;9.778;2023-06-04T10:32:37;0.10;;;0.10;;
19551;SDS011;9921;47.186;9.778;2023-06-04T10:35:05;0.20;;;0.20;;
19551;SDS011;9921;47.186;9.778;2023-06-04T10:37:34;0.10;;;0.10;;
19551;SDS011;9921;47.186;9.778;2023-06-04T10:40:01;0.15;;;0.15;;
19551;SDS011;9921;47.186;9.778;2023-06-04T10:42:37;0.20;;;0.20;;
19551;SDS011;9921;47.186;9.778;2023-06-04T10:45:05;0.10;;;0.10;;
19551;SDS011;9921;47.186;9.778;2023-06-04T10:47:34;0.10;;;0.10;;
19551;SDS011;9921;47.186;9.778;2023-06-04T10:50:09;0.17;;;0.17;;
19551;SDS011;9921;47.186;9.778;2023-06-04T10:52:38;0.10;;;0.10;;
19551;SDS011;9921;47.186;9.778;2023-06-04T10:55:16;0.10;;;0.10;;
19551;SDS011;9921;47.186;9.778;2023-06-04T10:57:50;0.10;;;0.10;;
19551;SDS011;9921;47.186;9.778;2023-06-04T11:00:18;0.10;;;0.10;;
19551;SDS011;9921;47.186;9.778;2023-06-04T11:02:51;0.10;;;0.10;;
19551;SDS011;9921;47.186;9.778;2023-06-04T11:05:20;0.10;;;0.10;;
19551;SDS011;9921;47.186;9.778;2023-06-04T11:07:49;0.10;;;0.10;;
19551;SDS011;9921;47.186;9.778;2023-06-04T11:10:16;0.10;;;0.10;;
19551;SDS011;9921;47.186;9.778;2023-06-04T11:12:44;0.10;;;0.10;;
19551;SDS011;9921;47.186;9.778;2023-06-04T11:15:11;0.10;;;0.10;;
19551;SDS011;9921;47.186;9.778;2023-06-04T11:17:48;0.10;;;0.10;;
19551;SDS011;9921;47.186;9.778;2023-06-04T11:20:16;0.10;;;0.10;;
19551;SDS011;9921;47.186;9.778;2023-06-04T11:22:51;0.10;;;0.10;;
19551;SDS011;9921;47.186;9.778;2023-06-04T11:25:18;0.10;;;0.10;;
19551;SDS011;9921;47.186;9.778;2023-06-04T11:27:47;0.10;;;0.10;;
19551;SDS011;9921;47.186;9.778;2023-06-04T11:30:14;0.10;;;0.10;;
19551;SDS011;9921;47.186;9.778;2023-06-04T11:32:42;0.00;;;0.00;;
19551;SDS011;9921;47.186;9.778;2023-06-04T11:35:09;0.10;;;0.10;;
19551;SDS011;9921;47.186;9.778;2023-06-04T11:37:37;0.10;;;0.10;;
19551;SDS011;9921;47.186;9.778;2023-06-04T11:40:16;0.10;;;0.10;;
19551;SDS011;9921;47.186;9.778;2023-06-04T11:42:43;0.10;;;0.10;;
19551;SDS011;9921;47.186;9.778;2023-06-04T11:45:11;0.10;;;0.10;;
19551;SDS011;9921;47.186;9.778;2023-06-04T11:47:39;0.10;;;0.10;;
19551;SDS011;9921;47.186;9.778;2023-06-04T11:50:07;0.10;;;0.10;;
19551;SDS011;9921;47.186;9.778;2023-06-04T11:52:35;0.10;;;0.10;;
19551;SDS011;9921;47.186;9.778;2023-06-04T11:55:03;0.10;;;0.10;;
19551;SDS011;9921;47.186;9.778;2023-06-04T11:57:32;0.10;;;0.10;;
19551;SDS011;9921;47.186;9.778;2023-06-04T12:00:00;0.10;;;0.10;;
19551;SDS011;9921;47.186;9.778;2023-06-04T12:02:27;0.10;;;0.10;;
19551;SDS011;9921;47.186;9.778;2023-06-04T12:04:54;0.10;;;0.10;;
19551;SDS011;9921;47.186;9.778;2023-06-04T12:07:21;0.03;;;0.03;;
19551;SDS011;9921;47.186;9.778;2023-06-04T12:09:49;0.00;;;0.00;;
19551;SDS011;9921;47.186;9.778;2023-06-04T12:12:21;0.10;;;0.10;;
19551;SDS011;9921;47.186;9.778;2023-06-04T12:14:57;0.10;;;0.10;;
19551;SDS011;9921;47.186;9.778;2023-06-04T12:17:24;0.10;;;0.10;;
19551;SDS011;9921;47.186;9.778;2023-06-04T12:19:51;0.10;;;0.10;;
19551;SDS011;9921;47.186;9.778;2023-06-04T12:22:18;0.00;;;0.00;;
19551;SDS011;9921;47.186;9.778;2023-06-04T12:24:46;0.00;;;0.00;;
19551;SDS011;9921;47.186;9.778;2023-06-04T12:27:14;0.00;;;0.00;;
19551;SDS011;9921;47.186;9.778;2023-06-04T12:29:41;0.00;;;0.00;;
19551;SDS011;9921;47.186;9.778;2023-06-04T12:32:09;0.00;;;0.00;;
19551;SDS011;9921;47.186;9.778;2023-06-04T12:34:37;0.00;;;0.00;;
19551;SDS011;9921;47.186;9.778;2023-06-04T12:37:03;0.00;;;0.00;;
19551;SDS011;9921;47.186;9.778;2023-06-04T12:39:34;0.00;;;0.00;;
19551;SDS011;9921;47.186;9.778;2023-06-04T12:42:02;0.00;;;0.00;;
19551;SDS011;9921;47.186;9.778;2023-06-04T12:44:30;0.07;;;0.07;;
19551;SDS011;9921;47.186;9.778;2023-06-04T12:46:57;0.05;;;0.05;;
19551;SDS011;9921;47.186;9.778;2023-06-04T12:49:25;0.00;;;0.00;;
19551;SDS011;9921;47.186;9.778;2023-06-04T12:51:56;0.00;;;0.00;;
19551;SDS011;9921;47.186;9.778;2023-06-04T12:54:29;0.10;;;0.10;;
19551;SDS011;9921;47.186;9.778;2023-06-04T12:56:56;0.00;;;0.00;;
19551;SDS011;9921;47.186;9.778;2023-06-04T12:59:24;0.00;;;0.00;;
19551;SDS011;9921;47.186;9.778;2023-06-04T13:01:51;0.00;;;0.00;;
19551;SDS011;9921;47.186;9.778;2023-06-04T13:04:18;0.00;;;0.00;;
19551;SDS011;9921;47.186;9.778;2023-06-04T13:06:46;0.00;;;0.00;;
19551;SDS011;9921;47.186;9.778;2023-06-04T13:09:13;0.00;;;0.00;;
19551;SDS011;9921;47.186;9.778;2023-06-04T13:11:41;0.00;;;0.00;;
19551;SDS011;9921;47.186;9.778;2023-06-04T13:14:09;0.00;;;0.00;;
19551;SDS011;9921;47.186;9.778;2023-06-04T13:16:37;0.00;;;0.00;;
19551;SDS011;9921;47.186;9.778;2023-06-04T13:19:05;0.00;;;0.00;;
19551;SDS011;9921;47.186;9.778;2023-06-04T13:21:32;0.00;;;0.00;;
19551;SDS011;9921;47.186;9.778;2023-06-04T13:24:01;0.00;;;0.00;;
19551;SDS011;9921;47.186;9.778;2023-06-04T13:26:28;0.00;;;0.00;;
19551;SDS011;9921;47.186;9.778;2023-06-04T13:28:55;0.00;;;0.00;;
19551;SDS011;9921;47.186;9.778;2023-06-04T13:31:22;0.00;;;0.00;;
19551;SDS011;9921;47.186;9.778;2023-06-04T13:33:49;0.00;;;0.00;;
19551;SDS011;9921;47.186;9.778;2023-06-04T13:36:15;0.00;;;0.00;;
19551;SDS011;9921;47.186;9.778;2023-06-04T13:38:42;0.00;;;0.00;;
19551;SDS011;9921;47.186;9.778;2023-06-04T13:41:11;0.00;;;0.00;;
19551;SDS011;9921;47.186;9.778;2023-06-04T13:43:37;0.00;;;0.00;;
19551;SDS011;9921;47.186;9.778;2023-06-04T13:46:04;0.00;;;0.00;;
19551;SDS011;9921;47.186;9.778;2023-06-04T13:48:31;0.00;;;0.00;;
19551;SDS011;9921;47.186;9.778;2023-06-04T13:50:58;0.00;;;0.00;;
19551;SDS011;9921;47.186;9.778;2023-06-04T13:53:25;0.00;;;0.00;;
19551;SDS011;9921;47.186;9.778;2023-06-04T13:55:52;0.00;;;0.00;;
19551;SDS011;9921;47.186;9.778;2023-06-04T13:58:24;0.00;;;0.00;;
19551;SDS011;9921;47.186;9.778;2023-06-04T14:00:51;0.00;;;0.00;;
19551;SDS011;9921;47.186;9.778;2023-06-04T14:03:18;0.00;;;0.00;;
19551;SDS011;9921;47.186;9.778;2023-06-04T14:05:45;0.00;;;0.00;;
19551;SDS011;9921;47.186;9.778;2023-06-04T14:08:12;0.00;;;0.00;;
19551;SDS011;9921;47.186;9.778;2023-06-04T14:10:39;0.00;;;0.00;;
19551;SDS011;9921;47.186;9.778;2023-06-04T14:13:07;0.00;;;0.00;;
19551;SDS011;9921;47.186;9.778;2023-06-04T14:15:36;0.00;;;0.00;;
19551;SDS011;9921;47.186;9.778;2023-06-04T14:18:03;0.00;;;0.00;;
19551;SDS011;9921;47.186;9.778;2023-06-04T14:20:31;0.00;;;0.00;;
19551;SDS011;9921;47.186;9.778;2023-06-04T14:22:57;0.00;;;0.00;;
19551;SDS011;9921;47.186;9.778;2023-06-04T14:25:24;0.00;;;0.00;;
19551;SDS011;9921;47.186;9.778;2023-06-04T14:27:51;0.00;;;0.00;;
19551;SDS011;9921;47.186;9.778;2023-06-04T14:30:18;0.00;;;0.00;;
19551;SDS011;9921;47.186;9.778;2023-06-04T14:32:46;0.00;;;0.00;;
19551;SDS011;9921;47.186;9.778;2023-06-04T14:35:13;0.00;;;0.00;;
19551;SDS011;9921;47.186;9.778;2023-06-04T14:37:40;0.00;;;0.00;;
19551;SDS011;9921;47.186;9.778;2023-06-04T14:40:07;0.00;;;0.00;;
19551;SDS011;9921;47.186;9.778;2023-06-04T14:42:34;0.00;;;0.00;;
19551;SDS011;9921;47.186;9.778;2023-06-04T14:45:02;0.00;;;0.00;;
19551;SDS011;9921;47.186;9.778;2023-06-04T14:47:29;0.00;;;0.00;;
19551;SDS011;9921;47.186;9.778;2023-06-04T14:49:57;0.00;;;0.00;;
19551;SDS011;9921;47.186;9.778;2023-06-04T14:52:24;0.00;;;0.00;;
19551;SDS011;9921;47.186;9.778;2023-06-04T14:54:53;0.00;;;0.00;;
19551;SDS011;9921;47.186;9.778;2023-06-04T14:57:19;0.00;;;0.00;;
19551;SDS011;9921;47.186;9.778;2023-06-04T14:59:48;0.00;;;0.00;;
19551;SDS011;9921;47.186;9.778;2023-06-04T15:02:15;0.00;;;0.00;;
19551;SDS011;9921;47.186;9.778;2023-06-04T15:04:44;0.00;;;0.00;;
19551;SDS011;9921;47.186;9.778;2023-06-04T15:07:12;0.00;;;0.00;;
19551;SDS011;9921;47.186;9.778;2023-06-04T15:09:39;0.00;;;0.00;;